sensor_id;sensor_type;location;lat;lon;timestamp;temperature;humidity
12661;DHT22;39039;51.802;5.710;2023-09-19T00:37:35;16.40;99.90
12661;DHT22;39039;51.802;5.710;2023-09-19T00:40:03;16.40;99.90
12661;DHT22;39039;51.802;5.710;2023-09-19T00:52:23;16.00;99.90
12661;DHT22;39039;51.802;5.710;2023-09-19T00:54:51;16.00;99.90
12661;DHT22;39039;51.802;5.710;2023-09-19T01:04:43;15.60;99.90
12661;DHT22;39039;51.802;5.710;2023-09-19T01:17:22;15.40;99.90
12661;DHT22;39039;51.802;5.710;2023-09-19T01:33:00;15.40;99.90
12661;DHT22;39039;51.802;5.710;2023-09-19T01:45:27;15.50;99.90
12661;DHT22;39039;51.802;5.710;2023-09-19T02:00:44;15.50;99.90
12661;DHT22;39039;51.802;5.710;2023-09-19T02:18:11;15.10;99.90
12661;DHT22;39039;51.802;5.710;2023-09-19T02:20:40;15.00;99.90
12661;DHT22;39039;51.802;5.710;2023-09-19T02:25:34;14.90;99.90
12661;DHT22;39039;51.802;5.710;2023-09-19T02:47:49;14.60;99.90
12661;DHT22;39039;51.802;5.710;2023-09-19T03:29:47;14.30;99.90
12661;DHT22;39039;51.802;5.710;2023-09-19T03:46:59;14.10;99.90
12661;DHT22;39039;51.802;5.710;2023-09-19T04:21:25;14.10;99.90
12661;DHT22;39039;51.802;5.710;2023-09-19T04:31:15;14.00;99.90
12661;DHT22;39039;51.802;5.710;2023-09-19T04:43:34;14.20;99.90
12661;DHT22;39039;51.802;5.710;2023-09-19T04:46:00;14.30;99.90
12661;DHT22;39039;51.802;5.710;2023-09-19T05:15:36;14.50;99.90
12661;DHT22;39039;51.802;5.710;2023-09-19T05:27:59;14.50;99.90
12661;DHT22;39039;51.802;5.710;2023-09-19T05:42:47;14.30;99.90
12661;DHT22;39039;51.802;5.710;2023-09-19T05:47:49;14.80;99.90
12661;DHT22;39039;51.802;5.710;2023-09-19T06:30:09;15.40;99.90
12661;DHT22;39039;51.802;5.710;2023-09-19T06:32:37;15.50;99.90
12661;DHT22;39039;51.802;5.710;2023-09-19T07:21:58;16.40;99.90
12661;DHT22;39039;51.802;5.710;2023-09-19T07:49:04;16.50;99.90
12661;DHT22;39039;51.802;5.710;2023-09-19T08:13:47;17.20;99.90
12661;DHT22;39039;51.802;5.710;2023-09-19T08:18:41;17.40;99.90
12661;DHT22;39039;51.802;5.710;2023-09-19T08:36:02;17.60;99.90
12661;DHT22;39039;51.802;5.710;2023-09-19T08:38:31;17.70;99.90
12661;DHT22;39039;51.802;5.710;2023-09-19T08:40:59;17.70;99.90
12661;DHT22;39039;51.802;5.710;2023-09-19T08:46:02;17.90;99.90
12661;DHT22;39039;51.802;5.710;2023-09-19T08:48:31;17.80;99.90
12661;DHT22;39039;51.802;5.710;2023-09-19T09:10:56;18.40;99.90
12661;DHT22;39039;51.802;5.710;2023-09-19T09:15:51;18.80;99.90
12661;DHT22;39039;51.802;5.710;2023-09-19T09:25:50;18.70;99.90
12661;DHT22;39039;51.802;5.710;2023-09-19T09:40:49;18.50;99.90
12661;DHT22;39039;51.802;5.710;2023-09-19T09:43:29;18.60;99.90
12661;DHT22;39039;51.802;5.710;2023-09-19T09:51:59;19.00;99.90
12661;DHT22;39039;51.802;5.710;2023-09-19T09:54:31;19.00;99.90
12661;DHT22;39039;51.802;5.710;2023-09-19T09:59:49;19.10;99.90
12661;DHT22;39039;51.802;5.710;2023-09-19T10:02:17;19.70;99.90
12661;DHT22;39039;51.802;5.710;2023-09-19T10:04:51;20.20;99.90
12661;DHT22;39039;51.802;5.710;2023-09-19T10:10:04;21.00;99.90
12661;DHT22;39039;51.802;5.710;2023-09-19T10:12:44;21.40;99.90
12661;DHT22;39039;51.802;5.710;2023-09-19T10:15:14;21.40;99.90
12661;DHT22;39039;51.802;5.710;2023-09-19T10:20:12;21.10;99.90
12661;DHT22;39039;51.802;5.710;2023-09-19T10:23:00;20.80;99.90
12661;DHT22;39039;51.802;5.710;2023-09-19T10:25:28;21.10;99.90
12661;DHT22;39039;51.802;5.710;2023-09-19T10:27:57;21.30;99.90
12661;DHT22;39039;51.802;5.710;2023-09-19T10:33:03;21.10;99.90
12661;DHT22;39039;51.802;5.710;2023-09-19T10:35:32;20.80;99.90
12661;DHT22;39039;51.802;5.710;2023-09-19T10:38:01;21.00;99.90
12661;DHT22;39039;51.802;5.710;2023-09-19T10:43:04;21.40;99.90
12661;DHT22;39039;51.802;5.710;2023-09-19T10:45:32;21.50;99.90
12661;DHT22;39039;51.802;5.710;2023-09-19T10:47:59;21.50;99.90
12661;DHT22;39039;51.802;5.710;2023-09-19T10:50:30;21.60;99.90
12661;DHT22;39039;51.802;5.710;2023-09-19T10:53:01;21.30;99.90
12661;DHT22;39039;51.802;5.710;2023-09-19T10:55:31;21.20;99.90
12661;DHT22;39039;51.802;5.710;2023-09-19T10:57:59;21.20;99.90
12661;DHT22;39039;51.802;5.710;2023-09-19T11:01:01;21.10;99.90
12661;DHT22;39039;51.802;5.710;2023-09-19T11:06:11;21.70;99.90
12661;DHT22;39039;51.802;5.710;2023-09-19T11:09:07;21.90;99.90
12661;DHT22;39039;51.802;5.710;2023-09-19T11:11:48;21.60;99.90
12661;DHT22;39039;51.802;5.710;2023-09-19T11:14:30;21.20;99.90
12661;DHT22;39039;51.802;5.710;2023-09-19T11:20:23;21.40;99.90
12661;DHT22;39039;51.802;5.710;2023-09-19T11:23:20;21.50;99.90
12661;DHT22;39039;51.802;5.710;2023-09-19T11:25:53;21.60;99.90
12661;DHT22;39039;51.802;5.710;2023-09-19T11:28:33;21.30;99.90
12661;DHT22;39039;51.802;5.710;2023-09-19T11:34:48;21.50;99.90
12661;DHT22;39039;51.802;5.710;2023-09-19T11:40:33;21.20;99.90
12661;DHT22;39039;51.802;5.710;2023-09-19T11:43:28;21.10;99.90
12661;DHT22;39039;51.802;5.710;2023-09-19T11:46:09;21.20;99.90
12661;DHT22;39039;51.802;5.710;2023-09-19T11:48:38;21.10;99.90
12661;DHT22;39039;51.802;5.710;2023-09-19T11:51:17;21.10;99.90
12661;DHT22;39039;51.802;5.710;2023-09-19T11:56:18;20.70;99.90
12661;DHT22;39039;51.802;5.710;2023-09-19T11:58:49;20.80;99.90
12661;DHT22;39039;51.802;5.710;2023-09-19T12:01:23;20.70;99.90
12661;DHT22;39039;51.802;5.710;2023-09-19T12:03:53;20.70;99.90
12661;DHT22;39039;51.802;5.710;2023-09-19T12:06:23;20.70;99.90
12661;DHT22;39039;51.802;5.710;2023-09-19T12:08:50;20.80;99.90
12661;DHT22;39039;51.802;5.710;2023-09-19T12:11:20;21.00;99.90
12661;DHT22;39039;51.802;5.710;2023-09-19T12:13:50;21.10;99.90
12661;DHT22;39039;51.802;5.710;2023-09-19T12:16:19;21.10;99.90
12661;DHT22;39039;51.802;5.710;2023-09-19T12:18:49;21.40;99.90
12661;DHT22;39039;51.802;5.710;2023-09-19T12:21:27;21.70;99.90
12661;DHT22;39039;51.802;5.710;2023-09-19T12:24:07;21.70;99.90
12661;DHT22;39039;51.802;5.710;2023-09-19T12:29:12;21.70;99.90
12661;DHT22;39039;51.802;5.710;2023-09-19T12:31:48;22.00;99.90
12661;DHT22;39039;51.802;5.710;2023-09-19T12:34:16;22.20;99.90
12661;DHT22;39039;51.802;5.710;2023-09-19T12:36:45;22.40;99.90
12661;DHT22;39039;51.802;5.710;2023-09-19T12:39:23;22.30;99.90
12661;DHT22;39039;51.802;5.710;2023-09-19T12:44:20;21.50;99.90
12661;DHT22;39039;51.802;5.710;2023-09-19T12:46:50;21.30;99.90
12661;DHT22;39039;51.802;5.710;2023-09-19T12:49:17;21.10;99.90
12661;DHT22;39039;51.802;5.710;2023-09-19T12:51:45;20.90;99.90
12661;DHT22;39039;51.802;5.710;2023-09-19T12:56:42;20.80;99.90
12661;DHT22;39039;51.802;5.710;2023-09-19T12:59:11;21.10;99.90
12661;DHT22;39039;51.802;5.710;2023-09-19T13:01:41;21.60;99.90
12661;DHT22;39039;51.802;5.710;2023-09-19T13:04:13;21.60;99.90
12661;DHT22;39039;51.802;5.710;2023-09-19T13:06:43;21.40;99.90
12661;DHT22;39039;51.802;5.710;2023-09-19T13:09:11;21.20;99.90
12661;DHT22;39039;51.802;5.710;2023-09-19T13:11:40;21.10;99.90
12661;DHT22;39039;51.802;5.710;2023-09-19T13:14:19;21.10;99.90
12661;DHT22;39039;51.802;5.710;2023-09-19T13:16:55;20.80;99.90
12661;DHT22;39039;51.802;5.710;2023-09-19T13:19:35;20.80;99.90
12661;DHT22;39039;51.802;5.710;2023-09-19T13:29:29;21.30;99.90
12661;DHT22;39039;51.802;5.710;2023-09-19T13:31:57;21.10;99.90
12661;DHT22;39039;51.802;5.710;2023-09-19T13:34:23;20.90;99.90
12661;DHT22;39039;51.802;5.710;2023-09-19T13:39:19;20.60;99.90
12661;DHT22;39039;51.802;5.710;2023-09-19T13:49:12;21.00;99.90
12661;DHT22;39039;51.802;5.710;2023-09-19T13:54:09;21.20;99.90
12661;DHT22;39039;51.802;5.710;2023-09-19T13:59:04;21.40;99.90
12661;DHT22;39039;51.802;5.710;2023-09-19T14:01:31;21.50;99.90
12661;DHT22;39039;51.802;5.710;2023-09-19T14:08:53;21.70;99.90
12661;DHT22;39039;51.802;5.710;2023-09-19T14:11:20;21.70;99.90
12661;DHT22;39039;51.802;5.710;2023-09-19T14:16:16;21.90;99.90
12661;DHT22;39039;51.802;5.710;2023-09-19T14:18:44;21.80;99.90
12661;DHT22;39039;51.802;5.710;2023-09-19T14:21:12;21.70;99.90
12661;DHT22;39039;51.802;5.710;2023-09-19T14:23:41;21.40;99.90
12661;DHT22;39039;51.802;5.710;2023-09-19T14:31:05;21.20;99.90
12661;DHT22;39039;51.802;5.710;2023-09-19T14:36:02;21.10;99.90
12661;DHT22;39039;51.802;5.710;2023-09-19T14:38:31;20.90;99.90
12661;DHT22;39039;51.802;5.710;2023-09-19T14:48:23;20.70;99.90
12661;DHT22;39039;51.802;5.710;2023-09-19T14:58:14;20.80;99.90
12661;DHT22;39039;51.802;5.710;2023-09-19T15:00:41;20.80;99.90
12661;DHT22;39039;51.802;5.710;2023-09-19T15:15:28;20.50;99.90
12661;DHT22;39039;51.802;5.710;2023-09-19T15:30:13;20.20;99.90
12661;DHT22;39039;51.802;5.710;2023-09-19T15:40:07;20.00;99.90
12661;DHT22;39039;51.802;5.710;2023-09-19T15:42:36;19.90;99.90
12661;DHT22;39039;51.802;5.710;2023-09-19T15:45:04;19.90;99.90
12661;DHT22;39039;51.802;5.710;2023-09-19T15:49:59;20.00;99.90
12661;DHT22;39039;51.802;5.710;2023-09-19T15:59:47;20.00;99.90
12661;DHT22;39039;51.802;5.710;2023-09-19T16:02:15;20.10;99.90
12661;DHT22;39039;51.802;5.710;2023-09-19T16:04:43;20.00;99.90
12661;DHT22;39039;51.802;5.710;2023-09-19T16:07:12;20.00;99.90
12661;DHT22;39039;51.802;5.710;2023-09-19T16:12:06;19.90;99.90
12661;DHT22;39039;51.802;5.710;2023-09-19T16:17:01;19.80;99.90
12661;DHT22;39039;51.802;5.710;2023-09-19T16:26:51;19.80;99.90
12661;DHT22;39039;51.802;5.710;2023-09-19T16:29:18;19.80;99.90
12661;DHT22;39039;51.802;5.710;2023-09-19T16:41:38;20.00;99.90
12661;DHT22;39039;51.802;5.710;2023-09-19T16:44:07;19.90;99.90
12661;DHT22;39039;51.802;5.710;2023-09-19T16:46:35;19.90;99.90
12661;DHT22;39039;51.802;5.710;2023-09-19T16:49:02;19.80;99.90
12661;DHT22;39039;51.802;5.710;2023-09-19T16:53:56;19.70;99.90
12661;DHT22;39039;51.802;5.710;2023-09-19T16:58:52;19.70;99.90
12661;DHT22;39039;51.802;5.710;2023-09-19T17:08:46;19.70;99.90
12661;DHT22;39039;51.802;5.710;2023-09-19T17:13:43;19.70;99.90
12661;DHT22;39039;51.802;5.710;2023-09-19T17:16:12;19.70;99.90
12661;DHT22;39039;51.802;5.710;2023-09-19T17:31:08;19.40;99.90
12661;DHT22;39039;51.802;5.710;2023-09-19T17:33:38;19.50;99.90
12661;DHT22;39039;51.802;5.710;2023-09-19T17:43:34;19.40;99.90
12661;DHT22;39039;51.802;5.710;2023-09-19T17:46:06;19.50;99.90
12661;DHT22;39039;51.802;5.710;2023-09-19T17:51:03;19.50;99.90
12661;DHT22;39039;51.802;5.710;2023-09-19T17:55:59;19.40;99.90
12661;DHT22;39039;51.802;5.710;2023-09-19T17:58:26;19.30;99.90
12661;DHT22;39039;51.802;5.710;2023-09-19T18:08:21;19.40;99.90
12661;DHT22;39039;51.802;5.710;2023-09-19T18:15:42;19.20;99.90
12661;DHT22;39039;51.802;5.710;2023-09-19T18:20:37;19.10;99.90
12661;DHT22;39039;51.802;5.710;2023-09-19T18:25:34;19.10;99.90
12661;DHT22;39039;51.802;5.710;2023-09-19T18:28:01;19.10;99.90
12661;DHT22;39039;51.802;5.710;2023-09-19T18:32:58;19.00;99.90
12661;DHT22;39039;51.802;5.710;2023-09-19T19:02:34;18.80;99.90
12661;DHT22;39039;51.802;5.710;2023-09-19T19:12:24;18.80;99.90
12661;DHT22;39039;51.802;5.710;2023-09-19T19:14:51;18.80;99.90
12661;DHT22;39039;51.802;5.710;2023-09-19T19:17:20;18.80;99.90
12661;DHT22;39039;51.802;5.710;2023-09-19T19:22:14;18.80;99.90
12661;DHT22;39039;51.802;5.710;2023-09-19T19:32:04;18.80;99.90
12661;DHT22;39039;51.802;5.710;2023-09-19T19:49:19;18.90;99.90
12661;DHT22;39039;51.802;5.710;2023-09-19T20:09:01;19.00;99.90
12661;DHT22;39039;51.802;5.710;2023-09-19T20:23:54;19.00;99.90
12661;DHT22;39039;51.802;5.710;2023-09-19T20:51:05;18.90;99.90
12661;DHT22;39039;51.802;5.710;2023-09-19T20:56:02;19.10;99.90
12661;DHT22;39039;51.802;5.710;2023-09-19T21:01:01;19.10;99.90
12661;DHT22;39039;51.802;5.710;2023-09-19T21:06:01;19.10;99.90
12661;DHT22;39039;51.802;5.710;2023-09-19T21:25:53;19.10;99.90
12661;DHT22;39039;51.802;5.710;2023-09-19T21:30:56;19.00;99.90
12661;DHT22;39039;51.802;5.710;2023-09-19T21:33:25;19.00;99.90
12661;DHT22;39039;51.802;5.710;2023-09-19T21:35:52;19.10;99.90
12661;DHT22;39039;51.802;5.710;2023-09-19T21:48:07;19.10;99.90
12661;DHT22;39039;51.802;5.710;2023-09-19T21:50:37;19.30;99.90
12661;DHT22;39039;51.802;5.710;2023-09-19T21:55:31;19.20;99.90
12661;DHT22;39039;51.802;5.710;2023-09-19T21:57:58;19.10;99.90
12661;DHT22;39039;51.802;5.710;2023-09-19T22:05:28;19.10;99.90
12661;DHT22;39039;51.802;5.710;2023-09-19T22:07:57;19.10;99.90
12661;DHT22;39039;51.802;5.710;2023-09-19T22:22:52;19.30;99.90
12661;DHT22;39039;51.802;5.710;2023-09-19T22:30:33;19.00;99.90
12661;DHT22;39039;51.802;5.710;2023-09-19T22:33:00;19.00;99.90
12661;DHT22;39039;51.802;5.710;2023-09-19T22:37:55;19.00;99.90
12661;DHT22;39039;51.802;5.710;2023-09-19T22:42:56;18.90;99.90
12661;DHT22;39039;51.802;5.710;2023-09-19T22:47:51;18.80;99.90
12661;DHT22;39039;51.802;5.710;2023-09-19T22:57:53;18.70;99.90
12661;DHT22;39039;51.802;5.710;2023-09-19T23:00:22;18.70;99.90
12661;DHT22;39039;51.802;5.710;2023-09-19T23:05:17;18.70;99.90
12661;DHT22;39039;51.802;5.710;2023-09-19T23:15:16;18.70;99.90
12661;DHT22;39039;51.802;5.710;2023-09-19T23:22:53;18.80;99.90
12661;DHT22;39039;51.802;5.710;2023-09-19T23:27:55;18.80;99.90
12661;DHT22;39039;51.802;5.710;2023-09-19T23:30:26;18.80;99.90
12661;DHT22;39039;51.802;5.710;2023-09-19T23:32:57;18.80;99.90
12661;DHT22;39039;51.802;5.710;2023-09-19T23:37:53;18.70;99.90
12661;DHT22;39039;51.802;5.710;2023-09-19T23:45:16;18.80;99.90
12661;DHT22;39039;51.802;5.710;2023-09-19T23:47:47;18.70;99.90
12661;DHT22;39039;51.802;5.710;2023-09-19T23:52:43;18.70;99.90
12661;DHT22;39039;51.802;5.710;2023-09-19T23:57:41;18.90;99.90
